Time;durP1;ratioP1;P1;durP2;ratioP2;P2;SDS_P1;SDS_P2;PMS_P1;PMS_P2;Temp;Humidity;BMP_temperature;BMP_pressure;BME280_temperature;BME280_humidity;BME280_pressure;Samples;Min_cycle;Max_cycle;Signal;HPM_P1;HPM_P2
2021/09/05 00:01:17;;;;;;;3.12;1.50;;;;;;;8.09;100.00;100405.45;1753599;81;21138;-64
2021/09/05 00:03:44;;;;;;;3.40;1.55;;;;;;;8.09;100.00;100404.95;1749338;81;21439;-65
2021/09/05 00:06:10;;;;;;;2.77;1.17;;;;;;;8.08;100.00;100403.83;1781787;80;20996;-65
2021/09/05 00:08:37;;;;;;;5.87;1.57;;;;;;;8.08;100.00;100409.83;1781345;80;21588;-65
2021/09/05 00:11:06;;;;;;;4.08;1.42;;;;;;;8.16;100.00;100407.23;1748770;80;21476;-65
2021/09/05 00:13:33;;;;;;;3.15;1.37;;;;;;;8.24;100.00;100409.81;1747013;81;22113;-65
2021/09/05 00:16:20;;;;;;;3.33;1.30;;;;;;;8.36;100.00;100405.09;1728567;82;20898;-66
2021/09/05 00:18:47;;;;;;;4.00;1.25;;;;;;;8.44;100.00;100403.80;1736662;82;20942;-65
2021/09/05 00:21:15;;;;;;;3.17;1.47;;;;;;;8.47;100.00;100408.67;1738044;82;21024;-65
2021/09/05 00:23:42;;;;;;;3.58;1.40;;;;;;;8.53;100.00;100408.02;1737516;82;21036;-65
2021/09/05 00:26:09;;;;;;;2.35;1.22;;;;;;;8.55;100.00;100410.94;1730759;82;21522;-65
2021/09/05 00:28:36;;;;;;;2.80;1.15;;;;;;;8.58;100.00;100412.71;1731302;82;21017;-65
2021/09/05 00:31:03;;;;;;;3.30;1.57;;;;;;;8.57;100.00;100412.89;1736523;82;21009;-65
2021/09/05 00:33:30;;;;;;;3.12;1.40;;;;;;;8.47;100.00;100407.38;1737578;82;21629;-65
2021/09/05 00:35:56;;;;;;;3.72;1.70;;;;;;;8.47;100.00;100412.56;1736899;82;22441;-65
2021/09/05 00:38:24;;;;;;;2.95;1.30;;;;;;;8.44;100.00;100418.09;1738067;82;21235;-65
2021/09/05 00:40:53;;;;;;;3.77;1.80;;;;;;;8.44;100.00;100425.08;1736926;82;21005;-65
2021/09/05 00:43:20;;;;;;;3.80;1.80;;;;;;;8.37;100.00;100427.54;1720183;82;21028;-64
2021/09/05 00:45:48;;;;;;;3.50;1.75;;;;;;;8.32;100.00;100420.68;1736907;82;20937;-64
2021/09/05 00:48:15;;;;;;;3.70;1.45;;;;;;;8.15;100.00;100418.59;1737453;81;21096;-64
2021/09/05 00:50:42;;;;;;;5.35;1.45;;;;;;;8.15;100.00;100418.59;1736907;82;21165;-65
2021/09/05 00:53:09;;;;;;;4.03;1.27;;;;;;;8.20;100.00;100428.48;1737015;82;20945;-65
2021/09/05 00:55:38;;;;;;;5.62;1.77;;;;;;;8.16;100.00;100422.80;1737576;82;21076;-65
2021/09/05 00:58:09;;;;;;;7.10;1.55;;;;;;;8.19;100.00;100426.38;1725099;82;21016;-65
2021/09/05 01:00:37;;;;;;;4.37;1.42;;;;;;;8.15;100.00;100428.17;1738509;82;20938;-66
2021/09/05 01:03:04;;;;;;;4.30;1.57;;;;;;;8.17;100.00;100435.30;1737324;82;21200;-65
2021/09/05 01:05:34;;;;;;;3.33;1.57;;;;;;;8.24;100.00;100437.57;1738663;82;21028;-64
2021/09/05 01:08:00;;;;;;;4.67;1.70;;;;;;;8.14;100.00;100438.21;1659401;83;21032;-64
2021/09/05 01:10:30;;;;;;;3.00;1.42;;;;;;;8.06;100.00;100439.02;1737531;82;20926;-65
2021/09/05 01:12:58;;;;;;;2.80;1.80;;;;;;;7.99;100.00;100440.18;1737073;82;21013;-65
2021/09/05 01:15:26;;;;;;;4.17;1.70;;;;;;;7.94;100.00;100444.22;1764358;80;21027;-65
2021/09/05 01:17:54;;;;;;;3.62;1.80;;;;;;;7.90;100.00;100444.22;1783749;80;20988;-65
2021/09/05 01:20:30;;;;;;;4.70;1.70;;;;;;;7.72;100.00;100443.85;1780660;80;20980;-66
2021/09/05 01:23:00;;;;;;;3.08;1.40;;;;;;;7.64;100.00;100446.93;1721159;80;20934;-67
2021/09/05 01:25:45;;;;;;;3.60;1.62;;;;;;;7.59;100.00;100446.60;1783587;80;21048;-65
2021/09/05 01:28:13;;;;;;;4.10;1.77;;;;;;;7.68;100.00;100447.73;1780027;80;21794;-66
2021/09/05 01:31:00;;;;;;;6.05;1.87;;;;;;;7.65;100.00;100452.44;1726849;82;21103;-66
2021/09/05 01:33:44;;;;;;;4.70;1.80;;;;;;;7.52;100.00;100451.61;1727097;83;20940;-65
2021/09/05 01:36:30;;;;;;;3.80;1.80;;;;;;;7.44;100.00;100456.77;1761359;80;21640;-66
2021/09/05 01:38:58;;;;;;;3.05;1.52;;;;;;;7.42;100.00;100459.51;1715805;80;21112;-66
2021/09/05 01:41:44;;;;;;;3.20;1.65;;;;;;;7.27;100.00;100462.37;1782827;80;21112;-66
2021/09/05 01:44:17;;;;;;;5.28;1.82;;;;;;;7.14;100.00;100464.59;1761211;80;20964;-65
2021/09/05 01:47:03;;;;;;;6.53;1.90;;;;;;;6.98;100.00;100464.85;1783948;80;20976;-63
2021/09/05 01:49:40;;;;;;;5.70;1.70;;;;;;;6.89;100.00;100463.17;1690252;83;21461;-64
2021/09/05 01:52:26;;;;;;;4.03;1.82;;;;;;;6.83;100.00;100467.69;1774772;80;21560;-66
2021/09/05 01:55:05;;;;;;;4.33;1.75;;;;;;;6.84;100.00;100466.71;1727042;83;22393;-66
2021/09/05 01:57:40;;;;;;;3.67;1.90;;;;;;;6.76;100.00;100469.27;1777709;80;20967;-66
2021/09/05 02:00:13;;;;;;;4.47;2.00;;;;;;;6.74;100.00;100472.47;1776976;80;20993;-66
2021/09/05 02:02:45;;;;;;;6.62;2.50;;;;;;;6.74;100.00;100481.54;1783931;80;21892;-66
2021/09/05 02:05:16;;;;;;;6.60;2.50;;;;;;;6.73;100.00;100476.84;1750175;80;21466;-66
2021/09/05 02:07:45;;;;;;;3.85;2.10;;;;;;;6.72;100.00;100479.12;1781142;79;21169;-66
2021/09/05 02:10:25;;;;;;;4.47;2.65;;;;;;;6.68;100.00;100484.76;1780284;80;20869;-65
2021/09/05 02:12:57;;;;;;;6.67;2.58;;;;;;;6.57;100.00;100486.62;1767769;80;20998;-66
2021/09/05 02:15:28;;;;;;;5.33;3.10;;;;;;;6.37;100.00;100486.48;1782466;79;21452;-66
2021/09/05 02:18:14;;;;;;;4.95;2.50;;;;;;;6.40;100.00;100490.05;1782796;79;21134;-64
2021/09/05 02:20:47;;;;;;;5.00;2.35;;;;;;;6.39;100.00;100492.31;1780756;80;20933;-66
2021/09/05 02:23:32;;;;;;;4.87;2.10;;;;;;;6.32;100.00;100492.57;1783426;80;20984;-66
2021/09/05 02:26:17;;;;;;;5.17;2.50;;;;;;;6.25;100.00;100500.59;1784491;80;21510;-66
2021/09/05 02:28:58;;;;;;;5.90;2.20;;;;;;;6.17;100.00;100502.63;1748611;80;20961;-66
2021/09/05 02:31:34;;;;;;;3.55;2.12;;;;;;;6.07;100.00;100504.02;1773151;80;20960;-64
2021/09/05 02:34:02;;;;;;;3.85;2.20;;;;;;;6.06;100.00;100502.86;1780963;79;21350;-65
2021/09/05 02:36:31;;;;;;;5.55;2.20;;;;;;;6.01;100.00;100508.48;1781738;80;20901;-65
2021/09/05 02:39:03;;;;;;;4.42;2.47;;;;;;;5.99;100.00;100507.83;1783250;80;21270;-66
2021/09/05 02:41:49;;;;;;;4.70;2.60;;;;;;;5.99;100.00;100507.83;1763256;80;20936;-66
2021/09/05 02:44:23;;;;;;;7.67;3.00;;;;;;;5.99;100.00;100514.78;1781851;79;20964;-66
2021/09/05 02:46:54;;;;;;;5.47;2.40;;;;;;;6.05;100.00;100516.77;1769947;80;21344;-66
2021/09/05 02:49:31;;;;;;;4.85;2.80;;;;;;;6.03;100.00;100516.92;1764163;80;21029;-66
2021/09/05 02:52:17;;;;;;;6.10;2.58;;;;;;;6.08;100.00;100521.65;1782574;80;21497;-65
2021/09/05 02:54:50;;;;;;;7.03;2.40;;;;;;;6.18;100.00;100530.17;1780989;80;21074;-64
2021/09/05 02:57:19;;;;;;;3.90;2.08;;;;;;;6.25;100.00;100536.38;1773446;80;21534;-65
2021/09/05 03:00:12;;;;;;;3.20;1.70;;;;;;;6.25;100.00;100532.95;1783368;80;21179;31
2021/09/05 03:02:48;;;;;;;5.03;2.22;;;;;;;6.22;100.00;100534.57;1661277;84;20985;-66
2021/09/05 03:05:20;;;;;;;6.22;2.12;;;;;;;6.27;100.00;100543.50;1647963;84;21151;-67
2021/09/05 03:08:04;;;;;;;9.40;2.83;;;;;;;6.26;100.00;100543.18;1663838;84;21011;-66
2021/09/05 03:10:38;;;;;;;4.42;2.60;;;;;;;6.27;100.00;100542.21;1667365;84;20980;-66
2021/09/05 03:13:24;;;;;;;5.62;2.15;;;;;;;6.38;100.00;100550.24;1663608;84;21127;-67
2021/09/05 03:15:59;;;;;;;4.83;2.10;;;;;;;6.48;100.00;100553.58;1663314;84;21030;-67
2021/09/05 03:18:40;;;;;;;4.78;2.10;;;;;;;6.48;100.00;100565.23;1663253;84;21118;-65
2021/09/05 03:21:25;;;;;;;5.85;2.35;;;;;;;6.69;100.00;100555.83;1657689;84;21071;-66
2021/09/05 03:23:56;;;;;;;4.17;2.10;;;;;;;6.63;100.00;100561.63;1654536;84;20908;-67
2021/09/05 03:26:24;;;;;;;6.87;2.30;;;;;;;7.00;100.00;100567.88;1624679;84;21870;-66
2021/09/05 03:29:09;;;;;;;4.50;2.08;;;;;;;7.64;100.00;100567.08;1664468;84;20913;-66
2021/09/05 03:31:37;;;;;;;3.58;1.80;;;;;;;8.75;100.00;100563.75;1664624;84;20957;-66
2021/09/05 03:34:22;;;;;;;3.47;2.00;;;;;;;9.78;100.00;100566.89;1660181;84;21046;-67
2021/09/05 03:36:50;;;;;;;3.50;1.70;;;;;;;11.09;100.00;100568.06;1657010;84;21043;-67
2021/09/05 03:39:35;;;;;;;4.50;1.77;;;;;;;12.20;100.00;100559.73;1663937;84;21163;-68
2021/09/05 03:42:04;;;;;;;4.10;2.30;;;;;;;13.50;100.00;100555.36;1663581;84;21392;-67
2021/09/05 03:44:50;;;;;;;4.43;2.20;;;;;;;14.49;100.00;100545.64;1664919;84;21756;-68
2021/09/05 03:47:23;;;;;;;;;;;;;;;15.61;100.00;100542.98;1641496;85;21088;-69
2021/09/05 03:50:00;;;;;;;4.03;2.30;;;;;;;16.45;100.00;100536.16;1664824;84;20218;-68
2021/09/05 03:52:28;;;;;;;5.20;2.73;;;;;;;17.21;100.00;100542.16;1664785;84;21152;-67
2021/09/05 03:54:58;;;;;;;5.23;2.27;;;;;;;17.92;100.00;100548.11;1664167;84;20946;-66
2021/09/05 03:57:28;;;;;;;4.43;2.53;;;;;;;18.56;100.00;100543.09;1664812;84;21170;-66
2021/09/05 03:59:55;;;;;;;5.37;2.57;;;;;;;19.27;84.32;100549.66;1664853;84;21606;-67
2021/09/05 04:02:22;;;;;;;6.73;2.80;;;;;;;20.00;70.88;100546.34;1663026;84;21016;-67
2021/09/05 04:04:50;;;;;;;5.20;3.70;;;;;;;20.63;62.16;100541.28;1664462;84;21695;-68
2021/09/05 04:07:20;;;;;;;5.30;3.40;;;;;;;21.18;58.66;100540.19;1666007;84;21011;-68
2021/09/05 04:12:30;;;;;;;5.53;3.10;;;;;;;22.42;51.34;100539.87;1655235;85;21002;-67
2021/09/05 04:14:56;;;;;;;5.40;2.97;;;;;;;22.74;46.90;100546.48;1658708;85;21022;-67
2021/09/05 04:17:23;;;;;;;4.87;3.10;;;;;;;22.81;45.36;100549.71;1653719;85;21163;-67
2021/09/05 04:19:49;;;;;;;4.55;2.60;;;;;;;23.20;44.69;100553.39;1653484;85;21001;-66
2021/09/05 04:22:16;;;;;;;4.55;2.60;;;;;;;23.66;44.68;100557.53;1656473;85;21014;-67
2021/09/05 04:24:42;;;;;;;3.72;2.60;;;;;;;24.32;42.60;100560.83;1656503;85;21046;-68
2021/09/05 04:27:09;;;;;;;4.30;2.55;;;;;;;24.74;40.90;100560.03;1655018;85;21679;-67
2021/09/05 04:29:35;;;;;;;3.90;2.80;;;;;;;25.08;40.06;100562.59;1693778;83;21188;-64
2021/09/05 04:32:04;;;;;;;3.90;2.58;;;;;;;25.43;38.28;100565.16;1690777;83;21013;-64
2021/09/05 04:34:31;;;;;;;3.65;2.80;;;;;;;25.63;37.13;100559.45;1691215;83;21555;-64
2021/09/05 04:36:57;;;;;;;5.45;2.37;;;;;;;25.78;36.81;100563.39;1688165;83;21217;-65
2021/09/05 04:39:25;;;;;;;5.12;2.60;;;;;;;25.96;36.16;100568.63;1693764;83;21170;-64
2021/09/05 04:41:52;;;;;;;4.80;2.70;;;;;;;26.18;36.13;100563.65;1695089;83;21157;-65
2021/09/05 04:44:19;;;;;;;3.05;2.20;;;;;;;26.51;35.63;100567.13;1692479;83;21676;-65
2021/09/05 04:46:46;;;;;;;5.12;2.62;;;;;;;26.96;34.84;100564.53;1702928;83;20954;-65
2021/09/05 04:49:12;;;;;;;7.00;2.92;;;;;;;27.40;33.51;100566.98;1698331;83;21048;-64
2021/09/05 04:51:39;;;;;;;4.03;2.25;;;;;;;27.98;32.31;100569.14;1700534;83;21090;-64
2021/09/05 04:54:05;;;;;;;3.50;2.25;;;;;;;28.49;31.05;100572.34;1696427;83;21145;-65
2021/09/05 04:56:33;;;;;;;4.05;2.33;;;;;;;28.92;30.10;100569.42;1698443;83;20996;-66
2021/09/05 04:59:00;;;;;;;3.62;2.58;;;;;;;29.28;29.48;100570.33;1693440;83;21507;-66
2021/09/05 05:01:29;;;;;;;7.90;2.72;;;;;;;29.36;29.67;100573.38;1697706;83;21024;-66
2021/09/05 05:03:55;;;;;;;5.75;2.50;;;;;;;29.42;29.48;100569.50;1703960;83;21139;-66
2021/09/05 05:06:21;;;;;;;3.25;2.15;;;;;;;29.40;29.58;100572.50;1696606;83;21855;-66
2021/09/05 05:08:51;;;;;;;3.40;2.10;;;;;;;29.52;29.44;100570.62;1699291;83;20905;-66
2021/09/05 05:11:19;;;;;;;3.98;2.10;;;;;;;29.68;29.14;100569.21;1690476;83;21016;-66
2021/09/05 05:13:47;;;;;;;4.78;1.87;;;;;;;30.10;28.03;100570.39;1689199;83;20970;-66
2021/09/05 05:16:14;;;;;;;6.55;2.10;;;;;;;30.39;27.72;100571.33;1691925;83;21006;-66
2021/09/05 05:18:41;;;;;;;3.37;2.45;;;;;;;30.22;26.58;100570.10;1690186;83;21145;-67
2021/09/05 05:21:09;;;;;;;3.92;2.67;;;;;;;29.98;26.77;100577.67;1689408;83;21021;-66
2021/09/05 05:23:36;;;;;;;7.25;4.08;;;;;;;29.94;27.91;100576.14;1690203;83;20998;-66
2021/09/05 05:26:02;;;;;;;5.20;4.33;;;;;;;29.76;27.97;100576.55;1689832;83;21005;-66
2021/09/05 05:28:29;;;;;;;6.72;4.78;;;;;;;29.38;28.46;100579.25;1690266;83;21447;-67
2021/09/05 05:30:55;;;;;;;5.87;3.80;;;;;;;28.93;28.76;100575.82;1689893;83;21809;-66
2021/09/05 05:33:22;;;;;;;6.25;3.87;;;;;;;28.12;29.39;100579.37;1690071;83;21052;-66
2021/09/05 05:35:50;;;;;;;7.10;4.22;;;;;;;26.83;30.63;100584.73;1690584;83;21048;-66
2021/09/05 05:38:16;;;;;;;7.00;4.50;;;;;;;25.56;32.61;100580.30;1690765;83;21022;-66
2021/09/05 05:40:42;;;;;;;6.78;5.42;;;;;;;24.56;34.63;100586.45;1690594;83;21523;-66
2021/09/05 05:43:09;;;;;;;7.28;5.22;;;;;;;23.96;35.88;100590.91;1690167;83;21155;-66
2021/09/05 05:45:36;;;;;;;7.28;4.30;;;;;;;23.09;36.63;100591.09;1690140;83;21080;-66
2021/09/05 05:48:04;;;;;;;5.35;3.17;;;;;;;22.38;38.24;100591.37;1690701;83;20966;-64
2021/09/05 05:50:31;;;;;;;5.57;3.40;;;;;;;22.01;39.32;100594.73;1690829;83;21554;-64
2021/09/05 05:52:57;;;;;;;5.00;3.23;;;;;;;21.91;40.60;100596.48;1690541;83;21105;-66
2021/09/05 05:55:24;;;;;;;7.07;3.43;;;;;;;21.70;41.22;100595.45;1689646;83;21132;-65
2021/09/05 05:57:50;;;;;;;4.90;3.07;;;;;;;21.91;41.39;100597.81;1690209;83;21068;-67
2021/09/05 06:00:19;;;;;;;4.70;2.53;;;;;;;22.16;41.06;100598.09;1690833;83;21092;-65
2021/09/05 06:02:45;;;;;;;4.17;2.70;;;;;;;22.10;40.71;100601.72;1689710;83;20985;-65
2021/09/05 06:05:13;;;;;;;4.70;2.77;;;;;;;21.82;41.57;100598.76;1688585;84;21530;-67
2021/09/05 06:07:40;;;;;;;4.67;2.40;;;;;;;21.73;42.41;100601.59;1689025;84;21165;-65
2021/09/05 06:10:09;;;;;;;5.33;2.70;;;;;;;21.67;41.37;100599.91;1689015;84;21655;-64
2021/09/05 06:12:35;;;;;;;4.23;2.30;;;;;;;21.36;42.33;100603.00;1689239;84;21583;-64
2021/09/05 06:15:02;;;;;;;4.83;2.40;;;;;;;21.28;42.12;100601.27;1689082;84;21557;-65
2021/09/05 06:17:31;;;;;;;5.90;2.80;;;;;;;21.23;43.51;100608.64;1684114;84;21015;-65
2021/09/05 06:19:57;;;;;;;3.83;2.23;;;;;;;21.40;43.45;100615.77;1689091;84;22439;-65
2021/09/05 06:22:24;;;;;;;4.67;2.67;;;;;;;21.64;42.03;100613.17;1664266;84;21068;-66
2021/09/05 06:24:50;;;;;;;5.50;3.30;;;;;;;21.78;40.92;100614.91;1688730;84;21142;-64
2021/09/05 06:27:18;;;;;;;9.37;6.73;;;;;;;22.11;40.50;100618.71;1684718;84;21004;-66
2021/09/05 06:29:44;;;;;;;5.40;3.50;;;;;;;22.70;41.29;100617.14;1685199;84;20993;-64
2021/09/05 06:32:11;;;;;;;4.80;2.37;;;;;;;23.29;39.69;100611.13;1685295;84;22407;-66
2021/09/05 06:34:38;;;;;;;4.95;2.40;;;;;;;23.93;37.99;100618.05;1681932;84;21475;-65
2021/09/05 06:37:04;;;;;;;4.47;2.12;;;;;;;24.47;36.09;100615.48;1685871;84;21005;-65
2021/09/05 06:39:31;;;;;;;3.70;2.45;;;;;;;24.80;36.36;100615.46;1683697;84;21514;-66
2021/09/05 06:41:59;;;;;;;4.72;3.10;;;;;;;25.49;35.96;100612.63;1688442;84;21598;-66
2021/09/05 06:44:25;;;;;;;5.15;2.98;;;;;;;26.20;34.51;100609.58;1688971;84;21574;-66
2021/09/05 06:46:54;;;;;;;4.05;3.00;;;;;;;26.74;33.44;100614.50;1688500;84;21735;-65
2021/09/05 06:49:20;;;;;;;4.92;3.00;;;;;;;27.47;32.49;100620.17;1688972;84;21092;-66
2021/09/05 06:51:46;;;;;;;4.53;3.00;;;;;;;28.02;31.28;100619.17;1688719;84;20909;-64
2021/09/05 06:54:13;;;;;;;4.33;2.80;;;;;;;28.54;30.45;100623.22;1687756;84;21549;-62
2021/09/05 06:56:40;;;;;;;4.65;2.98;;;;;;;29.00;29.78;100615.72;1689767;84;21100;-63
2021/09/05 06:59:07;;;;;;;3.27;2.17;;;;;;;29.49;28.62;100615.55;1689145;84;20965;-66
2021/09/05 07:01:33;;;;;;;3.27;1.77;;;;;;;29.72;27.16;100615.08;1689182;84;21539;-64
2021/09/05 07:03:59;;;;;;;2.80;1.90;;;;;;;29.87;26.15;100616.63;1690645;83;21056;-65
2021/09/05 07:06:26;;;;;;;3.45;2.40;;;;;;;29.98;25.79;100615.30;1687543;83;21099;-63
2021/09/05 07:08:54;;;;;;;3.62;2.70;;;;;;;29.97;25.09;100617.20;1690982;83;21151;-66
2021/09/05 07:11:20;;;;;;;5.60;2.37;;;;;;;30.01;25.43;100616.05;1694613;83;21081;-66
2021/09/05 07:13:47;;;;;;;3.27;1.70;;;;;;;30.35;25.01;100614.73;1698092;83;21057;-65
2021/09/05 07:16:14;;;;;;;3.27;1.40;;;;;;;30.59;23.24;100620.56;1701745;83;21163;-65
2021/09/05 07:18:41;;;;;;;2.80;1.60;;;;;;;30.59;23.57;100620.56;1696512;83;21103;-67
2021/09/05 07:21:08;;;;;;;1.92;1.22;;;;;;;30.77;22.59;100612.84;1699658;83;21823;-67
2021/09/05 07:23:34;;;;;;;2.00;1.20;;;;;;;30.98;22.81;100616.33;1693951;83;20957;-68
2021/09/05 07:26:02;;;;;;;2.77;1.30;;;;;;;31.19;22.95;100619.26;1697487;82;21483;-64
2021/09/05 07:28:36;;;;;;;2.45;1.17;;;;;;;31.29;22.16;100624.33;1689015;83;21753;-64
2021/09/05 07:31:04;;;;;;;2.85;1.60;;;;;;;31.17;22.25;100618.20;1695714;83;20957;-64
2021/09/05 07:33:30;;;;;;;2.30;1.35;;;;;;;31.38;21.90;100617.67;1693275;83;21147;-67
2021/09/05 07:35:57;;;;;;;3.42;1.40;;;;;;;31.40;21.43;100622.17;1692386;83;20890;-66
2021/09/05 07:38:23;;;;;;;2.77;1.40;;;;;;;31.00;21.30;100615.48;1699675;83;21589;-65
2021/09/05 07:40:49;;;;;;;3.20;1.57;;;;;;;30.17;21.76;100619.98;1696545;83;21026;-64
2021/09/05 07:43:16;;;;;;;2.62;1.67;;;;;;;29.13;22.36;100624.86;1699887;83;20998;-65
2021/09/05 07:45:44;;;;;;;3.27;2.10;;;;;;;28.09;22.80;100624.97;1688295;83;21147;-67
2021/09/05 07:48:10;;;;;;;2.70;1.70;;;;;;;27.29;23.95;100621.72;1694443;83;21052;-65
2021/09/05 07:50:38;;;;;;;3.17;2.10;;;;;;;27.04;24.07;100616.07;1698244;83;21085;-67
2021/09/05 07:53:04;;;;;;;3.42;2.20;;;;;;;27.03;24.97;100621.17;1699502;82;21077;-67
2021/09/05 07:55:31;;;;;;;3.83;2.00;;;;;;;26.89;24.97;100617.57;1696991;83;21088;-67
2021/09/05 07:57:57;;;;;;;2.77;1.72;;;;;;;26.24;25.41;100621.84;1694492;83;21548;-67
2021/09/05 08:00:24;;;;;;;3.10;1.80;;;;;;;25.46;26.10;100630.01;1696133;83;21112;-68
2021/09/05 08:02:50;;;;;;;2.65;1.92;;;;;;;24.72;26.91;100629.34;1690303;83;21086;-67
2021/09/05 08:05:20;;;;;;;3.03;2.00;;;;;;;24.18;27.61;100625.84;1683004;84;20948;-67
2021/09/05 08:07:47;;;;;;;3.40;2.00;;;;;;;23.69;28.47;100626.25;1682654;84;21198;-67
2021/09/05 08:10:14;;;;;;;4.47;1.40;;;;;;;23.13;28.89;100633.93;1687211;84;21120;-68
2021/09/05 08:12:42;;;;;;;3.77;1.80;;;;;;;22.90;29.52;100630.56;1683846;84;20957;-67
2021/09/05 08:15:10;;;;;;;2.40;1.40;;;;;;;23.07;29.40;100627.80;1687477;84;21083;-67
2021/09/05 08:17:37;;;;;;;2.33;1.37;;;;;;;23.82;29.31;100627.08;1686002;84;21098;-68
2021/09/05 08:20:05;;;;;;;3.83;1.83;;;;;;;24.58;28.30;100625.61;1687015;84;21137;-65
2021/09/05 08:22:31;;;;;;;2.67;1.80;;;;;;;25.25;27.63;100619.13;1687164;84;21141;-65
2021/09/05 08:24:58;;;;;;;2.80;1.90;;;;;;;25.55;26.74;100622.22;1687220;84;21124;-65
2021/09/05 08:27:24;;;;;;;3.00;1.77;;;;;;;25.50;26.71;100617.45;1686754;84;21011;-68
2021/09/05 08:29:51;;;;;;;3.73;1.50;;;;;;;25.12;26.56;100625.84;1686532;84;20960;-67
2021/09/05 08:32:18;;;;;;;4.30;1.43;;;;;;;25.02;26.82;100625.04;1687692;84;21102;-66
2021/09/05 08:34:44;;;;;;;3.73;1.90;;;;;;;25.13;26.93;100622.64;1687613;84;21145;-65
2021/09/05 08:37:11;;;;;;;2.90;1.90;;;;;;;25.53;26.89;100611.55;1687349;84;21126;-64
2021/09/05 08:39:38;;;;;;;2.27;1.40;;;;;;;26.05;26.32;100622.25;1686768;84;21103;-67
2021/09/05 08:42:05;;;;;;;4.00;1.33;;;;;;;26.05;24.29;100612.90;1686754;84;21135;-64
2021/09/05 08:44:31;;;;;;;2.10;1.40;;;;;;;25.44;24.58;100616.66;1687030;84;21060;-65
2021/09/05 08:47:00;;;;;;;4.27;1.60;;;;;;;24.73;25.45;100622.39;1686909;84;21067;-64
2021/09/05 08:49:30;;;;;;;4.17;2.17;;;;;;;24.18;26.80;100627.17;1686686;84;20960;-63
2021/09/05 08:51:58;;;;;;;2.27;1.30;;;;;;;24.16;26.71;100615.42;1679641;84;21090;-64
2021/09/05 08:54:25;;;;;;;2.00;1.27;;;;;;;24.57;26.99;100620.02;1686145;83;21750;-66
2021/09/05 08:56:52;;;;;;;2.00;1.20;;;;;;;25.23;26.15;100617.28;1687790;83;21068;-66
2021/09/05 08:59:19;;;;;;;2.40;1.13;;;;;;;25.66;25.17;100610.97;1687851;83;21230;-66
2021/09/05 09:02:00;;;;;;;2.03;1.10;;;;;;;25.71;25.04;100613.05;1684762;83;21134;-67
2021/09/05 09:04:30;;;;;;;3.37;1.53;;;;;;;25.09;25.59;100617.55;1693154;83;20953;-66
2021/09/05 09:07:02;;;;;;;2.17;1.30;;;;;;;25.09;25.59;100617.55;1692413;83;21566;-66
2021/09/05 09:09:29;;;;;;;4.23;1.33;;;;;;;25.34;25.84;100618.82;1668392;83;21010;-68
2021/09/05 09:11:58;;;;;;;2.10;1.13;;;;;;;25.48;24.48;100614.50;1692373;83;21789;-68
2021/09/05 09:14:44;;;;;;;1.87;0.90;;;;;;;25.41;24.77;100611.33;1692083;83;21017;-67
2021/09/05 09:17:12;;;;;;;2.10;1.30;;;;;;;25.51;24.72;100611.83;1693611;83;21088;-69
2021/09/05 09:19:45;;;;;;;3.03;1.10;;;;;;;25.91;24.27;100616.20;1690881;83;21155;-66
2021/09/05 09:22:19;;;;;;;1.83;1.00;;;;;;;26.13;24.12;100608.30;1690610;83;21087;-65
2021/09/05 09:24:46;;;;;;;2.37;1.27;;;;;;;26.61;23.28;100607.16;1691855;83;21504;-66
2021/09/05 09:27:12;;;;;;;3.77;1.30;;;;;;;27.26;23.42;100602.76;1691538;83;21016;-66
2021/09/05 09:29:39;;;;;;;2.73;1.10;;;;;;;27.78;22.25;100600.50;1692568;83;21131;-65
2021/09/05 09:32:09;;;;;;;2.13;1.20;;;;;;;27.71;21.71;100600.03;1692903;83;21068;-65
2021/09/05 09:34:41;;;;;;;3.83;1.57;;;;;;;27.35;22.15;100600.52;1693147;83;20954;-65
2021/09/05 09:37:17;;;;;;;4.10;1.40;;;;;;;27.22;22.78;100608.42;1693256;83;21063;-66
2021/09/05 09:39:52;;;;;;;5.50;1.67;;;;;;;26.96;23.23;100605.20;1700679;83;21083;-65
2021/09/05 09:42:39;;;;;;;3.07;1.43;;;;;;;26.65;23.94;100617.55;1691917;83;21532;-65
2021/09/05 09:45:13;;;;;;;3.23;1.70;;;;;;;26.24;23.96;100615.16;1692859;83;21081;-65
2021/09/05 09:47:49;;;;;;;3.00;1.90;;;;;;;25.76;24.95;100624.27;1693763;82;20973;-67
2021/09/05 09:50:20;;;;;;;2.43;1.40;;;;;;;25.66;24.26;100621.10;1698326;83;21809;-68
2021/09/05 09:52:48;;;;;;;2.83;1.60;;;;;;;25.71;24.25;100623.73;1694088;83;21145;-64
2021/09/05 09:55:16;;;;;;;3.03;1.27;;;;;;;25.91;23.95;100622.88;1699122;83;21051;-66
2021/09/05 09:57:43;;;;;;;2.43;1.60;;;;;;;26.08;23.91;100618.48;1691975;83;20961;-65
2021/09/05 10:00:10;;;;;;;2.00;1.13;;;;;;;26.10;23.65;100624.88;1691390;83;20922;-63
2021/09/05 10:02:42;;;;;;;2.75;1.30;;;;;;;26.20;23.44;100618.14;1691262;83;25947;-66
2021/09/05 10:05:12;;;;;;;2.20;1.20;;;;;;;26.54;22.34;100624.05;1670121;84;21056;-66
2021/09/05 10:07:38;;;;;;;1.97;1.20;;;;;;;26.93;22.37;100619.94;1692377;83;20918;-67
2021/09/05 10:10:06;;;;;;;1.87;1.03;;;;;;;27.33;22.10;100622.74;1692087;83;21559;-65
2021/09/05 10:12:33;;;;;;;1.60;1.10;;;;;;;27.37;21.29;100622.42;1691717;83;21051;-65
2021/09/05 10:15:00;;;;;;;2.00;0.90;;;;;;;27.14;21.10;100623.23;1689627;83;21100;-64
2021/09/05 10:17:27;;;;;;;2.03;1.10;;;;;;;26.97;21.86;100620.17;1690150;83;21032;-66
2021/09/05 10:19:55;;;;;;;2.63;1.47;;;;;;;26.97;22.46;100610.80;1690635;83;21048;-65
2021/09/05 10:22:31;;;;;;;2.27;1.30;;;;;;;27.09;22.84;100611.23;1668720;83;21569;-64
2021/09/05 10:24:53;;;;;;;2.17;1.10;;;;;;;27.35;22.25;100617.91;1691235;83;21092;-63
2021/09/05 10:27:32;;;;;;;2.30;1.17;;;;;;;27.48;22.04;100620.42;1691501;83;21125;-64
2021/09/05 10:30:18;;;;;;;3.17;1.67;;;;;;;27.63;23.18;100616.76;1692271;83;20999;-63
2021/09/05 10:32:58;;;;;;;2.73;1.47;;;;;;;27.97;22.26;100617.13;1701577;83;21035;-64
2021/09/05 10:35:47;;;;;;;2.87;1.50;;;;;;;28.10;21.33;100613.15;1690598;83;21568;-64
2021/09/05 10:38:25;;;;;;;2.85;1.62;;;;;;;28.33;22.29;100618.15;1691064;83;21507;-64
2021/09/05 10:40:56;;;;;;;5.78;1.80;;;;;;;28.44;22.20;100615.34;1695611;83;21134;-65
2021/09/05 10:43:24;;;;;;;2.87;1.37;;;;;;;28.27;22.04;100625.25;1689807;83;21517;-63
2021/09/05 10:45:55;;;;;;;2.42;1.40;;;;;;;28.00;22.25;100629.95;1692863;83;20985;-67
2021/09/05 10:48:37;;;;;;;5.55;3.12;;;;;;;27.92;21.81;100626.56;1655544;83;21088;-64
2021/09/05 10:51:16;;;;;;;2.80;1.40;;;;;;;27.98;22.14;100622.73;1694860;83;21050;-65
2021/09/05 10:54:02;;;;;;;3.10;1.77;;;;;;;28.20;21.35;100618.12;1689825;83;21547;-65
2021/09/05 10:56:44;;;;;;;2.60;1.62;;;;;;;28.48;21.52;100615.00;1691996;83;20942;-65
2021/09/05 10:59:17;;;;;;;2.60;1.47;;;;;;;28.91;20.65;100612.91;1691880;83;21044;-64
2021/09/05 11:01:52;;;;;;;2.45;1.30;;;;;;;29.19;20.39;100607.02;1692126;83;21029;-65
2021/09/05 11:04:42;;;;;;;2.65;1.25;;;;;;;29.51;20.25;100610.13;1689674;83;21076;-65
2021/09/05 11:07:30;;;;;;;2.55;1.30;;;;;;;29.61;19.89;100620.42;1687413;84;22328;-65
2021/09/05 11:09:59;;;;;;;3.77;1.80;;;;;;;29.43;20.18;100623.45;1628350;86;21017;-65
2021/09/05 11:12:37;;;;;;;2.83;1.67;;;;;;;28.88;20.64;100623.44;1671329;84;21498;-64
2021/09/05 11:15:11;;;;;;;3.12;1.37;;;;;;;28.18;21.16;100618.39;1684053;84;21670;-67
2021/09/05 11:17:41;;;;;;;2.15;1.30;;;;;;;27.29;22.45;100625.73;1686952;84;20952;-64
2021/09/05 11:20:11;;;;;;;3.57;1.40;;;;;;;26.01;24.02;100636.70;1686338;84;21152;-66
2021/09/05 11:22:45;;;;;;;2.40;1.27;;;;;;;25.13;25.10;100643.45;1687830;84;22244;-65
2021/09/05 11:25:25;;;;;;;4.17;1.47;;;;;;;24.50;25.78;100638.40;1678541;84;20936;-63
2021/09/05 11:28:05;;;;;;;2.50;1.47;;;;;;;23.86;26.57;100641.45;1684131;84;21131;-68
2021/09/05 11:30:38;;;;;;;3.63;1.40;;;;;;;23.28;26.99;100635.34;1686883;84;20995;-65
2021/09/05 11:33:09;;;;;;;2.60;1.50;;;;;;;22.75;28.08;100631.78;1686778;84;21152;-66
2021/09/05 11:35:46;;;;;;;2.30;1.00;;;;;;;22.31;28.38;100638.58;1683407;84;21086;-67
2021/09/05 11:38:15;;;;;;;2.43;1.23;;;;;;;21.84;29.39;100641.78;1678584;84;21546;-65
2021/09/05 11:40:50;;;;;;;2.43;1.20;;;;;;;21.74;30.19;100640.33;1684728;84;21093;-66
2021/09/05 11:43:35;;;;;;;3.50;1.30;;;;;;;22.06;30.25;100638.58;1685304;84;22381;-64